sensor_id;sensor_type;location;lat;lon;timestamp;P1;durP1;ratioP1;P2;durP2;ratioP2
1957;SDS011;979;51.076;13.748;2023-07-08T00:00:14;17.23;;;16.43;;
1957;SDS011;979;51.076;13.748;2023-07-08T00:02:58;18.03;;;17.17;;
1957;SDS011;979;51.076;13.748;2023-07-08T00:05:35;18.67;;;17.57;;
1957;SDS011;979;51.076;13.748;2023-07-08T00:08:24;18.07;;;16.70;;
1957;SDS011;979;51.076;13.748;2023-07-08T00:10:56;18.20;;;17.20;;
1957;SDS011;979;51.076;13.748;2023-07-08T00:13:40;19.10;;;18.10;;
1957;SDS011;979;51.076;13.748;2023-07-08T00:16:34;16.97;;;16.07;;
1957;SDS011;979;51.076;13.748;2023-07-08T00:19:08;18.00;;;17.10;;
1957;SDS011;979;51.076;13.748;2023-07-08T00:21:45;18.63;;;17.53;;
1957;SDS011;979;51.076;13.748;2023-07-08T00:24:22;17.00;;;16.20;;
1957;SDS011;979;51.076;13.748;2023-07-08T00:26:50;17.10;;;16.30;;
1957;SDS011;979;51.076;13.748;2023-07-08T00:29:28;17.40;;;16.50;;
1957;SDS011;979;51.076;13.748;2023-07-08T00:31:56;18.20;;;17.17;;
1957;SDS011;979;51.076;13.748;2023-07-08T00:34:28;18.77;;;17.53;;
1957;SDS011;979;51.076;13.748;2023-07-08T00:40:31;17.90;;;16.90;;
1957;SDS011;979;51.076;13.748;2023-07-08T00:43:07;17.77;;;16.87;;
1957;SDS011;979;51.076;13.748;2023-07-08T00:45:38;18.67;;;17.57;;
1957;SDS011;979;51.076;13.748;2023-07-08T00:48:33;17.40;;;16.57;;
1957;SDS011;979;51.076;13.748;2023-07-08T00:51:10;17.27;;;16.53;;
1957;SDS011;979;51.076;13.748;2023-07-08T00:53:53;18.37;;;17.33;;
1957;SDS011;979;51.076;13.748;2023-07-08T00:56:46;20.13;;;18.10;;
1957;SDS011;979;51.076;13.748;2023-07-08T00:59:28;18.77;;;17.70;;
1957;SDS011;979;51.076;13.748;2023-07-08T01:02:11;18.03;;;17.23;;
1957;SDS011;979;51.076;13.748;2023-07-08T01:04:58;18.93;;;17.87;;
1957;SDS011;979;51.076;13.748;2023-07-08T01:07:42;18.80;;;18.00;;
1957;SDS011;979;51.076;13.748;2023-07-08T01:10:33;19.17;;;18.17;;
1957;SDS011;979;51.076;13.748;2023-07-08T01:13:17;19.27;;;18.17;;
1957;SDS011;979;51.076;13.748;2023-07-08T01:15:59;18.43;;;17.43;;
1957;SDS011;979;51.076;13.748;2023-07-08T01:18:43;18.70;;;17.63;;
1957;SDS011;979;51.076;13.748;2023-07-08T01:21:30;18.73;;;17.40;;
1957;SDS011;979;51.076;13.748;2023-07-08T01:24:21;18.77;;;17.77;;
1957;SDS011;979;51.076;13.748;2023-07-08T01:27:13;18.47;;;17.47;;
1957;SDS011;979;51.076;13.748;2023-07-08T01:29:59;18.50;;;17.50;;
1957;SDS011;979;51.076;13.748;2023-07-08T01:32:40;19.00;;;18.03;;
1957;SDS011;979;51.076;13.748;2023-07-08T01:35:19;19.27;;;18.27;;
1957;SDS011;979;51.076;13.748;2023-07-08T01:37:50;17.70;;;16.80;;
1957;SDS011;979;51.076;13.748;2023-07-08T01:40:26;18.27;;;17.13;;
1957;SDS011;979;51.076;13.748;2023-07-08T01:42:58;17.67;;;16.87;;
1957;SDS011;979;51.076;13.748;2023-07-08T01:45:29;17.87;;;16.87;;
1957;SDS011;979;51.076;13.748;2023-07-08T01:48:02;17.77;;;16.90;;
1957;SDS011;979;51.076;13.748;2023-07-08T01:50:34;18.57;;;17.40;;
1957;SDS011;979;51.076;13.748;2023-07-08T01:53:06;18.27;;;17.27;;
1957;SDS011;979;51.076;13.748;2023-07-08T01:55:42;17.13;;;16.33;;
1957;SDS011;979;51.076;13.748;2023-07-08T01:58:14;18.30;;;17.20;;
1957;SDS011;979;51.076;13.748;2023-07-08T02:00:55;18.10;;;17.20;;
1957;SDS011;979;51.076;13.748;2023-07-08T02:03:34;19.00;;;17.87;;
1957;SDS011;979;51.076;13.748;2023-07-08T02:06:34;17.47;;;16.60;;
1957;SDS011;979;51.076;13.748;2023-07-08T02:09:26;18.80;;;17.47;;
1957;SDS011;979;51.076;13.748;2023-07-08T02:12:11;18.43;;;17.50;;
1957;SDS011;979;51.076;13.748;2023-07-08T02:14:53;18.13;;;17.23;;
1957;SDS011;979;51.076;13.748;2023-07-08T02:17:21;18.23;;;17.27;;
1957;SDS011;979;51.076;13.748;2023-07-08T02:19:53;17.87;;;16.97;;
1957;SDS011;979;51.076;13.748;2023-07-08T02:22:31;18.00;;;17.20;;
1957;SDS011;979;51.076;13.748;2023-07-08T02:25:20;16.97;;;16.17;;
1957;SDS011;979;51.076;13.748;2023-07-08T02:31:10;17.70;;;16.80;;
1957;SDS011;979;51.076;13.748;2023-07-08T02:33:54;18.47;;;17.47;;
1957;SDS011;979;51.076;13.748;2023-07-08T02:37:49;17.80;;;16.80;;
1957;SDS011;979;51.076;13.748;2023-07-08T02:40:20;17.03;;;16.23;;
1957;SDS011;979;51.076;13.748;2023-07-08T02:43:50;18.60;;;17.50;;
1957;SDS011;979;51.076;13.748;2023-07-08T02:46:25;17.50;;;16.63;;
1957;SDS011;979;51.076;13.748;2023-07-08T02:48:59;17.70;;;16.90;;
1957;SDS011;979;51.076;13.748;2023-07-08T02:51:27;17.83;;;16.97;;
1957;SDS011;979;51.076;13.748;2023-07-08T02:53:58;17.90;;;16.90;;
1957;SDS011;979;51.076;13.748;2023-07-08T02:56:26;18.50;;;17.47;;
1957;SDS011;979;51.076;13.748;2023-07-08T02:58:56;18.13;;;16.97;;
1957;SDS011;979;51.076;13.748;2023-07-08T03:01:26;19.17;;;18.10;;
1957;SDS011;979;51.076;13.748;2023-07-08T03:03:55;18.20;;;17.20;;
1957;SDS011;979;51.076;13.748;2023-07-08T03:06:27;18.27;;;17.27;;
1957;SDS011;979;51.076;13.748;2023-07-08T03:09:14;17.90;;;17.00;;
1957;SDS011;979;51.076;13.748;2023-07-08T03:12:00;18.53;;;17.53;;
1957;SDS011;979;51.076;13.748;2023-07-08T03:14:38;18.57;;;17.57;;
1957;SDS011;979;51.076;13.748;2023-07-08T03:17:27;19.10;;;18.10;;
1957;SDS011;979;51.076;13.748;2023-07-08T03:20:01;19.27;;;18.07;;
1957;SDS011;979;51.076;13.748;2023-07-08T03:22:47;18.67;;;17.67;;
1957;SDS011;979;51.076;13.748;2023-07-08T03:25:36;18.67;;;17.77;;
1957;SDS011;979;51.076;13.748;2023-07-08T03:28:23;18.90;;;17.57;;
1957;SDS011;979;51.076;13.748;2023-07-08T03:31:09;19.17;;;18.10;;
1957;SDS011;979;51.076;13.748;2023-07-08T03:33:50;19.20;;;18.00;;
1957;SDS011;979;51.076;13.748;2023-07-08T03:36:30;18.93;;;17.83;;
1957;SDS011;979;51.076;13.748;2023-07-08T03:39:07;19.83;;;18.60;;
1957;SDS011;979;51.076;13.748;2023-07-08T03:41:49;18.90;;;17.90;;
1957;SDS011;979;51.076;13.748;2023-07-08T03:44:41;19.23;;;18.23;;
1957;SDS011;979;51.076;13.748;2023-07-08T03:47:29;18.47;;;17.40;;
1957;SDS011;979;51.076;13.748;2023-07-08T03:50:17;18.53;;;17.50;;
1957;SDS011;979;51.076;13.748;2023-07-08T03:53:02;19.10;;;18.10;;
1957;SDS011;979;51.076;13.748;2023-07-08T03:55:46;18.50;;;17.40;;
1957;SDS011;979;51.076;13.748;2023-07-08T03:58:29;18.43;;;17.47;;
1957;SDS011;979;51.076;13.748;2023-07-08T04:01:20;18.23;;;17.23;;
1957;SDS011;979;51.076;13.748;2023-07-08T04:04:10;19.03;;;18.00;;
1957;SDS011;979;51.076;13.748;2023-07-08T04:06:42;17.20;;;16.27;;
1957;SDS011;979;51.076;13.748;2023-07-08T04:09:19;18.80;;;17.90;;
1957;SDS011;979;51.076;13.748;2023-07-08T04:11:48;18.13;;;17.20;;
1957;SDS011;979;51.076;13.748;2023-07-08T04:14:18;19.00;;;18.00;;
1957;SDS011;979;51.076;13.748;2023-07-08T04:16:48;17.53;;;16.67;;
1957;SDS011;979;51.076;13.748;2023-07-08T04:19:19;18.43;;;17.43;;
1957;SDS011;979;51.076;13.748;2023-07-08T04:21:50;18.60;;;17.60;;
1957;SDS011;979;51.076;13.748;2023-07-08T04:24:18;18.60;;;17.60;;
1957;SDS011;979;51.076;13.748;2023-07-08T04:26:47;17.60;;;16.80;;
1957;SDS011;979;51.076;13.748;2023-07-08T04:29:16;19.33;;;18.20;;
1957;SDS011;979;51.076;13.748;2023-07-08T04:31:51;18.83;;;17.83;;
1957;SDS011;979;51.076;13.748;2023-07-08T04:34:35;18.77;;;17.77;;
1957;SDS011;979;51.076;13.748;2023-07-08T04:37:26;18.10;;;17.20;;
1957;SDS011;979;51.076;13.748;2023-07-08T04:40:14;17.60;;;16.80;;
1957;SDS011;979;51.076;13.748;2023-07-08T04:42:52;18.03;;;17.23;;
1957;SDS011;979;51.076;13.748;2023-07-08T04:45:21;20.00;;;18.70;;
1957;SDS011;979;51.076;13.748;2023-07-08T04:47:49;16.60;;;15.90;;
1957;SDS011;979;51.076;13.748;2023-07-08T04:50:21;18.90;;;17.80;;
1957;SDS011;979;51.076;13.748;2023-07-08T04:52:49;19.70;;;18.70;;
1957;SDS011;979;51.076;13.748;2023-07-08T04:55:18;18.67;;;17.77;;
1957;SDS011;979;51.076;13.748;2023-07-08T04:57:46;18.57;;;17.63;;
1957;SDS011;979;51.076;13.748;2023-07-08T05:00:15;19.10;;;18.07;;
1957;SDS011;979;51.076;13.748;2023-07-08T05:02:46;18.60;;;17.80;;
1957;SDS011;979;51.076;13.748;2023-07-08T05:05:14;17.83;;;17.00;;
1957;SDS011;979;51.076;13.748;2023-07-08T05:07:47;17.60;;;16.70;;
1957;SDS011;979;51.076;13.748;2023-07-08T05:10:16;18.27;;;17.33;;
1957;SDS011;979;51.076;13.748;2023-07-08T05:12:44;20.53;;;19.03;;
1957;SDS011;979;51.076;13.748;2023-07-08T05:15:14;19.87;;;19.03;;
1957;SDS011;979;51.076;13.748;2023-07-08T05:17:49;18.90;;;17.90;;
1957;SDS011;979;51.076;13.748;2023-07-08T05:20:19;17.83;;;16.83;;
1957;SDS011;979;51.076;13.748;2023-07-08T05:22:53;17.97;;;17.07;;
1957;SDS011;979;51.076;13.748;2023-07-08T05:25:21;18.17;;;17.00;;
1957;SDS011;979;51.076;13.748;2023-07-08T05:27:49;17.17;;;16.37;;
1957;SDS011;979;51.076;13.748;2023-07-08T05:30:20;17.43;;;16.63;;
1957;SDS011;979;51.076;13.748;2023-07-08T05:32:48;17.23;;;16.37;;
1957;SDS011;979;51.076;13.748;2023-07-08T05:35:16;17.47;;;16.63;;
1957;SDS011;979;51.076;13.748;2023-07-08T05:37:47;17.00;;;16.30;;
1957;SDS011;979;51.076;13.748;2023-07-08T05:40:17;17.07;;;16.37;;
1957;SDS011;979;51.076;13.748;2023-07-08T05:42:45;17.30;;;16.50;;
1957;SDS011;979;51.076;13.748;2023-07-08T05:45:13;17.03;;;16.40;;
1957;SDS011;979;51.076;13.748;2023-07-08T05:47:44;17.73;;;16.73;;
1957;SDS011;979;51.076;13.748;2023-07-08T05:50:13;16.93;;;16.13;;
1957;SDS011;979;51.076;13.748;2023-07-08T05:52:45;16.97;;;16.20;;
1957;SDS011;979;51.076;13.748;2023-07-08T05:55:35;17.47;;;16.57;;
1957;SDS011;979;51.076;13.748;2023-07-08T05:58:23;16.60;;;15.90;;
1957;SDS011;979;51.076;13.748;2023-07-08T06:01:11;17.10;;;16.30;;
1957;SDS011;979;51.076;13.748;2023-07-08T06:04:03;17.17;;;16.27;;
1957;SDS011;979;51.076;13.748;2023-07-08T06:06:50;16.10;;;15.30;;
1957;SDS011;979;51.076;13.748;2023-07-08T06:09:44;17.13;;;15.97;;
1957;SDS011;979;51.076;13.748;2023-07-08T06:13:05;16.37;;;15.73;;
1957;SDS011;979;51.076;13.748;2023-07-08T06:15:44;16.37;;;15.77;;
1957;SDS011;979;51.076;13.748;2023-07-08T06:18:33;15.73;;;15.13;;
1957;SDS011;979;51.076;13.748;2023-07-08T06:21:14;18.17;;;17.27;;
1957;SDS011;979;51.076;13.748;2023-07-08T06:23:54;16.17;;;15.47;;
1957;SDS011;979;51.076;13.748;2023-07-08T06:26:36;16.07;;;15.47;;
1957;SDS011;979;51.076;13.748;2023-07-08T06:29:26;16.90;;;16.10;;
1957;SDS011;979;51.076;13.748;2023-07-08T06:32:12;16.80;;;16.10;;
1957;SDS011;979;51.076;13.748;2023-07-08T06:35:24;16.43;;;15.73;;
1957;SDS011;979;51.076;13.748;2023-07-08T06:37:56;16.53;;;15.73;;
1957;SDS011;979;51.076;13.748;2023-07-08T06:40:34;16.27;;;15.63;;
1957;SDS011;979;51.076;13.748;2023-07-08T06:43:22;16.47;;;15.80;;
1957;SDS011;979;51.076;13.748;2023-07-08T06:46:30;16.57;;;15.97;;
1957;SDS011;979;51.076;13.748;2023-07-08T06:49:07;17.27;;;16.60;;
1957;SDS011;979;51.076;13.748;2023-07-08T06:51:54;17.13;;;16.43;;
1957;SDS011;979;51.076;13.748;2023-07-08T06:54:31;17.63;;;16.83;;
1957;SDS011;979;51.076;13.748;2023-07-08T06:57:00;17.10;;;16.20;;
1957;SDS011;979;51.076;13.748;2023-07-08T06:59:28;17.50;;;16.50;;
1957;SDS011;979;51.076;13.748;2023-07-08T07:02:18;17.40;;;16.70;;
1957;SDS011;979;51.076;13.748;2023-07-08T07:05:04;16.33;;;15.70;;
1957;SDS011;979;51.076;13.748;2023-07-08T07:08:38;17.40;;;16.60;;
1957;SDS011;979;51.076;13.748;2023-07-08T07:11:23;17.73;;;16.83;;
1957;SDS011;979;51.076;13.748;2023-07-08T07:14:05;16.80;;;16.10;;
1957;SDS011;979;51.076;13.748;2023-07-08T07:16:48;16.77;;;16.00;;
1957;SDS011;979;51.076;13.748;2023-07-08T07:19:39;16.23;;;15.63;;
1957;SDS011;979;51.076;13.748;2023-07-08T07:22:13;17.60;;;16.80;;
1957;SDS011;979;51.076;13.748;2023-07-08T07:24:53;17.53;;;16.83;;
1957;SDS011;979;51.076;13.748;2023-07-08T07:27:41;17.17;;;16.40;;
1957;SDS011;979;51.076;13.748;2023-07-08T07:30:19;18.30;;;17.30;;
1957;SDS011;979;51.076;13.748;2023-07-08T07:33:07;17.50;;;16.80;;
1957;SDS011;979;51.076;13.748;2023-07-08T07:35:53;17.43;;;16.57;;
1957;SDS011;979;51.076;13.748;2023-07-08T07:38:32;17.70;;;16.90;;
1957;SDS011;979;51.076;13.748;2023-07-08T07:41:29;16.80;;;16.20;;
1957;SDS011;979;51.076;13.748;2023-07-08T07:44:08;16.47;;;15.83;;
1957;SDS011;979;51.076;13.748;2023-07-08T07:46:52;17.00;;;16.30;;
1957;SDS011;979;51.076;13.748;2023-07-08T07:49:43;18.10;;;17.30;;
1957;SDS011;979;51.076;13.748;2023-07-08T07:56:00;16.73;;;15.93;;
1957;SDS011;979;51.076;13.748;2023-07-08T07:58:49;17.60;;;16.70;;
1957;SDS011;979;51.076;13.748;2023-07-08T08:01:38;18.73;;;17.70;;
1957;SDS011;979;51.076;13.748;2023-07-08T08:04:23;17.47;;;16.73;;
1957;SDS011;979;51.076;13.748;2023-07-08T08:07:20;17.90;;;17.00;;
1957;SDS011;979;51.076;13.748;2023-07-08T08:10:23;17.20;;;16.40;;
1957;SDS011;979;51.076;13.748;2023-07-08T08:13:07;17.80;;;17.10;;
1957;SDS011;979;51.076;13.748;2023-07-08T08:15:58;16.87;;;16.17;;
1957;SDS011;979;51.076;13.748;2023-07-08T08:18:33;17.83;;;17.10;;
1957;SDS011;979;51.076;13.748;2023-07-08T08:21:35;16.77;;;16.07;;
1957;SDS011;979;51.076;13.748;2023-07-08T08:24:14;17.60;;;16.90;;
1957;SDS011;979;51.076;13.748;2023-07-08T08:27:05;17.50;;;16.80;;
1957;SDS011;979;51.076;13.748;2023-07-08T08:29:58;16.37;;;15.57;;
1957;SDS011;979;51.076;13.748;2023-07-08T08:32:45;16.90;;;16.20;;
1957;SDS011;979;51.076;13.748;2023-07-08T08:35:57;17.03;;;16.23;;
1957;SDS011;979;51.076;13.748;2023-07-08T08:38:57;17.10;;;16.50;;
1957;SDS011;979;51.076;13.748;2023-07-08T08:41:45;17.97;;;17.17;;
1957;SDS011;979;51.076;13.748;2023-07-08T08:44:51;17.17;;;16.47;;
1957;SDS011;979;51.076;13.748;2023-07-08T08:51:28;17.53;;;16.53;;
1957;SDS011;979;51.076;13.748;2023-07-08T08:54:03;17.40;;;16.60;;
1957;SDS011;979;51.076;13.748;2023-07-08T08:59:58;18.30;;;17.40;;
1957;SDS011;979;51.076;13.748;2023-07-08T09:02:50;18.40;;;17.50;;
1957;SDS011;979;51.076;13.748;2023-07-08T09:05:47;17.80;;;17.00;;
1957;SDS011;979;51.076;13.748;2023-07-08T09:09:41;19.20;;;18.40;;
1957;SDS011;979;51.076;13.748;2023-07-08T09:12:29;18.47;;;17.67;;
1957;SDS011;979;51.076;13.748;2023-07-08T09:26:53;17.67;;;16.80;;
1957;SDS011;979;51.076;13.748;2023-07-08T09:51:23;16.97;;;16.00;;
1957;SDS011;979;51.076;13.748;2023-07-08T09:54:28;17.33;;;16.53;;
1957;SDS011;979;51.076;13.748;2023-07-08T09:58:00;16.30;;;15.70;;
1957;SDS011;979;51.076;13.748;2023-07-08T10:00:59;15.43;;;14.93;;
1957;SDS011;979;51.076;13.748;2023-07-08T10:04:04;15.50;;;14.80;;
1957;SDS011;979;51.076;13.748;2023-07-08T10:06:45;17.33;;;16.53;;
1957;SDS011;979;51.076;13.748;2023-07-08T10:09:35;15.67;;;15.07;;
1957;SDS011;979;51.076;13.748;2023-07-08T10:12:36;17.67;;;16.97;;
1957;SDS011;979;51.076;13.748;2023-07-08T10:15:32;16.50;;;15.80;;
1957;SDS011;979;51.076;13.748;2023-07-08T10:18:51;17.40;;;16.60;;
1957;SDS011;979;51.076;13.748;2023-07-08T10:21:51;18.20;;;17.40;;
1957;SDS011;979;51.076;13.748;2023-07-08T10:25:02;17.40;;;16.67;;
1957;SDS011;979;51.076;13.748;2023-07-08T10:28:03;15.90;;;15.30;;
1957;SDS011;979;51.076;13.748;2023-07-08T10:30:48;16.40;;;15.70;;
1957;SDS011;979;51.076;13.748;2023-07-08T10:33:47;16.83;;;16.13;;
1957;SDS011;979;51.076;13.748;2023-07-08T10:36:41;17.30;;;16.70;;
1957;SDS011;979;51.076;13.748;2023-07-08T10:39:39;16.83;;;16.13;;
1957;SDS011;979;51.076;13.748;2023-07-08T10:42:25;17.80;;;16.87;;
1957;SDS011;979;51.076;13.748;2023-07-08T10:45:04;17.90;;;17.20;;
1957;SDS011;979;51.076;13.748;2023-07-08T10:47:44;18.23;;;17.43;;
1957;SDS011;979;51.076;13.748;2023-07-08T10:50:53;16.73;;;15.83;;
1957;SDS011;979;51.076;13.748;2023-07-08T10:57:09;17.30;;;16.60;;
1957;SDS011;979;51.076;13.748;2023-07-08T10:59:45;17.70;;;17.00;;
1957;SDS011;979;51.076;13.748;2023-07-08T11:02:52;16.43;;;15.83;;
1957;SDS011;979;51.076;13.748;2023-07-08T11:05:44;15.73;;;15.23;;
1957;SDS011;979;51.076;13.748;2023-07-08T11:08:14;16.50;;;15.87;;
1957;SDS011;979;51.076;13.748;2023-07-08T11:10:52;16.40;;;15.80;;
1957;SDS011;979;51.076;13.748;2023-07-08T11:13:48;16.30;;;15.70;;
1957;SDS011;979;51.076;13.748;2023-07-08T11:16:45;16.80;;;16.10;;
1957;SDS011;979;51.076;13.748;2023-07-08T11:19:33;16.80;;;16.10;;
1957;SDS011;979;51.076;13.748;2023-07-08T11:22:22;17.37;;;16.67;;
1957;SDS011;979;51.076;13.748;2023-07-08T11:25:00;17.30;;;16.70;;
1957;SDS011;979;51.076;13.748;2023-07-08T11:27:45;17.87;;;17.10;;
1957;SDS011;979;51.076;13.748;2023-07-08T11:30:43;16.90;;;16.30;;
1957;SDS011;979;51.076;13.748;2023-07-08T11:34:13;16.63;;;15.93;;
1957;SDS011;979;51.076;13.748;2023-07-08T11:37:18;16.60;;;15.80;;
1957;SDS011;979;51.076;13.748;2023-07-08T11:40:49;16.90;;;16.00;;
1957;SDS011;979;51.076;13.748;2023-07-08T11:43:39;16.40;;;15.70;;
1957;SDS011;979;51.076;13.748;2023-07-08T12:07:15;15.40;;;14.90;;
1957;SDS011;979;51.076;13.748;2023-07-08T12:15:20;16.43;;;15.83;;
1957;SDS011;979;51.076;13.748;2023-07-08T12:18:16;16.03;;;15.53;;
1957;SDS011;979;51.076;13.748;2023-07-08T12:21:29;16.70;;;16.07;;
1957;SDS011;979;51.076;13.748;2023-07-08T12:24:14;16.60;;;16.10;;
1957;SDS011;979;51.076;13.748;2023-07-08T12:27:03;15.73;;;15.23;;
1957;SDS011;979;51.076;13.748;2023-07-08T12:29:39;16.03;;;15.33;;
1957;SDS011;979;51.076;13.748;2023-07-08T12:32:27;15.83;;;15.23;;
1957;SDS011;979;51.076;13.748;2023-07-08T12:39:37;16.98;;;16.17;;
1957;SDS011;979;51.076;13.748;2023-07-08T12:42:19;16.20;;;15.70;;
1957;SDS011;979;51.076;13.748;2023-07-08T12:48:32;15.88;;;15.38;;
1957;SDS011;979;51.076;13.748;2023-07-08T12:51:17;16.25;;;15.75;;
1957;SDS011;979;51.076;13.748;2023-07-08T12:53:50;15.55;;;15.05;;
1957;SDS011;979;51.076;13.748;2023-07-08T12:56:23;16.45;;;15.95;;
1957;SDS011;979;51.076;13.748;2023-07-08T12:58:53;16.30;;;15.70;;
1957;SDS011;979;51.076;13.748;2023-07-08T13:01:26;16.23;;;15.60;;
1957;SDS011;979;51.076;13.748;2023-07-08T13:03:59;15.93;;;15.32;;
1957;SDS011;979;51.076;13.748;2023-07-08T13:06:30;15.90;;;15.40;;
1957;SDS011;979;51.076;13.748;2023-07-08T13:09:05;15.88;;;15.38;;
1957;SDS011;979;51.076;13.748;2023-07-08T13:11:40;15.43;;;14.82;;
1957;SDS011;979;51.076;13.748;2023-07-08T13:14:11;15.43;;;14.93;;
1957;SDS011;979;51.076;13.748;2023-07-08T13:16:41;16.55;;;15.98;;
1957;SDS011;979;51.076;13.748;2023-07-08T13:19:10;15.85;;;15.25;;
1957;SDS011;979;51.076;13.748;2023-07-08T13:21:40;16.08;;;15.48;;
1957;SDS011;979;51.076;13.748;2023-07-08T13:24:09;16.42;;;15.82;;
1957;SDS011;979;51.076;13.748;2023-07-08T13:26:40;16.17;;;15.68;;
1957;SDS011;979;51.076;13.748;2023-07-08T13:29:14;15.65;;;15.15;;
1957;SDS011;979;51.076;13.748;2023-07-08T13:31:47;17.10;;;16.40;;
1957;SDS011;979;51.076;13.748;2023-07-08T13:34:23;15.60;;;15.10;;
1957;SDS011;979;51.076;13.748;2023-07-08T13:36:57;15.30;;;14.70;;
1957;SDS011;979;51.076;13.748;2023-07-08T13:39:35;16.52;;;15.93;;
1957;SDS011;979;51.076;13.748;2023-07-08T13:42:27;15.57;;;15.07;;
1957;SDS011;979;51.076;13.748;2023-07-08T13:45:30;15.80;;;15.30;;
1957;SDS011;979;51.076;13.748;2023-07-08T13:48:24;15.63;;;15.13;;
1957;SDS011;979;51.076;13.748;2023-07-08T13:51:05;17.10;;;16.50;;
1957;SDS011;979;51.076;13.748;2023-07-08T13:53:50;16.58;;;15.88;;
1957;SDS011;979;51.076;13.748;2023-07-08T13:56:30;16.52;;;16.02;;
1957;SDS011;979;51.076;13.748;2023-07-08T13:59:18;16.33;;;15.73;;
1957;SDS011;979;51.076;13.748;2023-07-08T14:02:08;16.95;;;16.35;;
1957;SDS011;979;51.076;13.748;2023-07-08T14:04:56;15.68;;;15.05;;
1957;SDS011;979;51.076;13.748;2023-07-08T14:07:43;16.88;;;16.27;;
1957;SDS011;979;51.076;13.748;2023-07-08T14:10:20;16.58;;;16.08;;
1957;SDS011;979;51.076;13.748;2023-07-08T14:13:05;15.70;;;15.10;;
1957;SDS011;979;51.076;13.748;2023-07-08T14:15:43;16.27;;;15.63;;
1957;SDS011;979;51.076;13.748;2023-07-08T14:18:26;16.20;;;15.63;;
1957;SDS011;979;51.076;13.748;2023-07-08T14:21:13;16.90;;;16.38;;
1957;SDS011;979;51.076;13.748;2023-07-08T14:24:14;16.20;;;15.50;;
1957;SDS011;979;51.076;13.748;2023-07-08T14:27:13;16.45;;;15.75;;
1957;SDS011;979;51.076;13.748;2023-07-08T14:29:46;16.27;;;15.68;;
1957;SDS011;979;51.076;13.748;2023-07-08T14:32:36;16.80;;;16.00;;
1957;SDS011;979;51.076;13.748;2023-07-08T14:35:14;15.68;;;15.18;;
1957;SDS011;979;51.076;13.748;2023-07-08T14:37:50;15.93;;;15.43;;
1957;SDS011;979;51.076;13.748;2023-07-08T14:40:35;15.77;;;15.18;;
1957;SDS011;979;51.076;13.748;2023-07-08T14:43:17;16.20;;;15.60;;
1957;SDS011;979;51.076;13.748;2023-07-08T14:46:08;15.52;;;15.02;;
1957;SDS011;979;51.076;13.748;2023-07-08T14:48:55;15.60;;;14.93;;
1957;SDS011;979;51.076;13.748;2023-07-08T14:52:17;15.65;;;15.25;;
1957;SDS011;979;51.076;13.748;2023-07-08T14:55:04;15.98;;;15.38;;
1957;SDS011;979;51.076;13.748;2023-07-08T14:57:39;16.20;;;15.70;;
1957;SDS011;979;51.076;13.748;2023-07-08T15:00:43;16.08;;;15.57;;
1957;SDS011;979;51.076;13.748;2023-07-08T15:03:12;16.35;;;15.75;;
1957;SDS011;979;51.076;13.748;2023-07-08T15:05:44;14.95;;;14.52;;
1957;SDS011;979;51.076;13.748;2023-07-08T15:08:14;14.68;;;14.23;;
1957;SDS011;979;51.076;13.748;2023-07-08T15:10:47;14.77;;;14.27;;
1957;SDS011;979;51.076;13.748;2023-07-08T15:13:24;16.83;;;16.17;;
1957;SDS011;979;51.076;13.748;2023-07-08T15:15:56;15.10;;;14.60;;
1957;SDS011;979;51.076;13.748;2023-07-08T15:18:32;13.88;;;13.48;;
1957;SDS011;979;51.076;13.748;2023-07-08T15:24:36;15.38;;;14.90;;
1957;SDS011;979;51.076;13.748;2023-07-08T15:27:21;14.73;;;14.23;;
1957;SDS011;979;51.076;13.748;2023-07-08T15:29:57;15.65;;;15.15;;
1957;SDS011;979;51.076;13.748;2023-07-08T15:32:35;15.68;;;15.00;;
1957;SDS011;979;51.076;13.748;2023-07-08T15:35:23;15.32;;;14.63;;
1957;SDS011;979;51.076;13.748;2023-07-08T15:39:09;14.77;;;14.27;;
1957;SDS011;979;51.076;13.748;2023-07-08T15:41:50;15.50;;;15.00;;
1957;SDS011;979;51.076;13.748;2023-07-08T15:44:27;14.20;;;13.80;;
1957;SDS011;979;51.076;13.748;2023-07-08T15:46:56;15.82;;;15.23;;
1957;SDS011;979;51.076;13.748;2023-07-08T15:49:32;15.20;;;14.70;;
1957;SDS011;979;51.076;13.748;2023-07-08T15:52:04;14.85;;;14.27;;
1957;SDS011;979;51.076;13.748;2023-07-08T15:54:43;14.75;;;14.25;;
1957;SDS011;979;51.076;13.748;2023-07-08T15:57:27;15.57;;;15.00;;
1957;SDS011;979;51.076;13.748;2023-07-08T16:00:00;16.17;;;15.60;;
1957;SDS011;979;51.076;13.748;2023-07-08T16:02:33;14.70;;;14.20;;
1957;SDS011;979;51.076;13.748;2023-07-08T16:05:07;15.05;;;14.52;;
1957;SDS011;979;51.076;13.748;2023-07-08T16:07:42;14.93;;;14.43;;
1957;SDS011;979;51.076;13.748;2023-07-08T16:10:13;14.70;;;14.20;;
1957;SDS011;979;51.076;13.748;2023-07-08T16:12:48;15.73;;;15.13;;
1957;SDS011;979;51.076;13.748;2023-07-08T16:15:18;15.90;;;15.30;;
1957;SDS011;979;51.076;13.748;2023-07-08T16:17:50;15.50;;;14.80;;
1957;SDS011;979;51.076;13.748;2023-07-08T16:20:20;14.80;;;14.30;;
1957;SDS011;979;51.076;13.748;2023-07-08T16:26:08;17.97;;;16.87;;
1957;SDS011;979;51.076;13.748;2023-07-08T16:28:40;15.50;;;14.70;;
1957;SDS011;979;51.076;13.748;2023-07-08T16:31:14;16.27;;;15.57;;
1957;SDS011;979;51.076;13.748;2023-07-08T16:33:44;15.63;;;15.13;;
1957;SDS011;979;51.076;13.748;2023-07-08T16:36:14;16.53;;;15.43;;
1957;SDS011;979;51.076;13.748;2023-07-08T16:38:58;17.47;;;16.77;;
1957;SDS011;979;51.076;13.748;2023-07-08T16:41:35;16.73;;;16.23;;
1957;SDS011;979;51.076;13.748;2023-07-08T16:44:18;17.03;;;16.43;;
1957;SDS011;979;51.076;13.748;2023-07-08T16:46:59;16.70;;;16.00;;
1957;SDS011;979;51.076;13.748;2023-07-08T16:49:35;17.17;;;16.27;;
1957;SDS011;979;51.076;13.748;2023-07-08T16:52:23;18.27;;;17.43;;
1957;SDS011;979;51.076;13.748;2023-07-08T16:54:55;16.60;;;16.00;;
1957;SDS011;979;51.076;13.748;2023-07-08T16:57:25;17.63;;;16.93;;
1957;SDS011;979;51.076;13.748;2023-07-08T17:00:11;16.50;;;15.80;;
1957;SDS011;979;51.076;13.748;2023-07-08T17:03:34;17.80;;;17.10;;
1957;SDS011;979;51.076;13.748;2023-07-08T17:06:17;16.70;;;16.10;;
1957;SDS011;979;51.076;13.748;2023-07-08T17:09:14;16.20;;;15.40;;
1957;SDS011;979;51.076;13.748;2023-07-08T17:11:59;16.40;;;15.70;;
1957;SDS011;979;51.076;13.748;2023-07-08T17:14:47;16.77;;;16.17;;
1957;SDS011;979;51.076;13.748;2023-07-08T17:17:40;15.27;;;14.70;;
1957;SDS011;979;51.076;13.748;2023-07-08T17:20:22;15.93;;;15.43;;
1957;SDS011;979;51.076;13.748;2023-07-08T17:23:05;15.20;;;14.70;;
1957;SDS011;979;51.076;13.748;2023-07-08T17:25:50;17.53;;;16.73;;
1957;SDS011;979;51.076;13.748;2023-07-08T17:28:43;16.60;;;15.90;;
1957;SDS011;979;51.076;13.748;2023-07-08T17:31:22;17.27;;;16.37;;
1957;SDS011;979;51.076;13.748;2023-07-08T17:34:18;16.47;;;15.87;;
1957;SDS011;979;51.076;13.748;2023-07-08T17:36:55;16.60;;;15.93;;
1957;SDS011;979;51.076;13.748;2023-07-08T17:42:42;17.07;;;16.13;;
1957;SDS011;979;51.076;13.748;2023-07-08T17:45:24;16.87;;;16.20;;
1957;SDS011;979;51.076;13.748;2023-07-08T17:48:02;15.80;;;15.20;;
1957;SDS011;979;51.076;13.748;2023-07-08T17:50:54;16.53;;;15.73;;
1957;SDS011;979;51.076;13.748;2023-07-08T17:53:36;16.03;;;15.43;;
1957;SDS011;979;51.076;13.748;2023-07-08T17:56:35;16.00;;;15.30;;
1957;SDS011;979;51.076;13.748;2023-07-08T17:59:18;15.40;;;14.80;;
1957;SDS011;979;51.076;13.748;2023-07-08T18:01:55;16.23;;;15.57;;